Hummelstown, PA (17036)

3:22 PM EDT on July 01, 2015 (GMT -0400)
Greenbriar | | Change Station
CLOSE
Current Station
Personal Weather Station
Location: Hummelstown, PA
Elevation: 446 ft
Nearby Weather Stations

Elev 446 ft 40.30 °N, 76.71 °W | Updated 40 seconds ago

Mostly Cloudy
Mostly Cloudy
77.9 °F
Feels Like 79 °F
N
0.0
Wind Variable Wind from SW
Gusts 0.0 mph

Today
High -- | Low -- °F
--% Chance of Precip.
Yesterday
High -- | Low -- °F
Precip. -- in
5:40 AM 8:40 PM
Full, 100% visible
Pressure 29.83 in
Visibility 9.0 miles
Clouds Mostly Cloudy 5000 ft
Heat Index 79 °F
Dew Point 58 °F
Humidity 50%
Rainfall 0.07 in
Snow Depth Not available.
UV 1.0 out of 12
Pollen 2.60 out of 12
Air Quality Not available.
Flu Activity Not available.
METAR KMDT 011856Z 30011G19KT 9SM BKN050 27/16 A2983 RMK AO2 SLP099 T02720161

More Conditions Fewer Conditions

Pressure 29.83 in
Visibility 9.0 miles
Clouds Mostly Cloudy 5000 ft
Heat Index 79 °F
Dew Point 58 °F
Humidity 50%
Rainfall 0.07 in
Snow Depth Not available.
UV 1.0 out of 12
Pollen 2.60 out of 12
Air Quality Not available.
Flu Activity Not available.
METAR KMDT 011856Z 30011G19KT 9SM BKN050 27/16 A2983 RMK AO2 SLP099 T02720161

More Conditions Fewer Conditions

10-Day Weather Forecast

×

Almanac

Astronomy

Jul. 01, 2015 Rise Set
Actual Time
Civil Twilight
Nautical Twilight
Astronomical Twilight
Moon
Length of Visible Light
Length of Day
Tomorrow will be .
, % of the Moon is Illuminated

Today's Extremes

State Highs State Lows

Community

WunderPhotos

Upload Photos

1,834,245 photos uploaded!

WunderBlogs® & News

Nearby

Air Quality

  Air Quality AQ Index Pollutant
Not available.

Snow Depth

Station Depth Elevation

Earthquake Activity

City Distance Mag. Time & Date
Minimum magnitude displayed is 2.5.

Coastal Water Temperatures

Place Temperature

Stations

Nearby Weather Stations

Station Location Temp. Windchill Dew Point Humidity Wind Precip. Elev Updated Type